Time;durP1;ratioP1;P1;durP2;ratioP2;P2;SDS_P1;SDS_P2;PMS_P1;PMS_P2;Temp;Humidity;BMP_temperature;BMP_pressure;BME280_temperature;BME280_humidity;BME280_pressure;Samples;Min_cycle;Max_cycle;Signal;HPM_P1;HPM_P2
2023/02/16 00:02:09;;;;;;;7.47;2.53;;;27.10;53.20;;;;;;5067320;28;20268;-69
2023/02/16 00:04:37;;;;;;;6.57;2.67;;;26.80;56.00;;;;;;5071784;28;20211;-69
2023/02/16 00:07:04;;;;;;;11.00;2.10;;;27.10;55.30;;;;;;5072969;28;20180;-68
2023/02/16 00:09:31;;;;;;;15.70;1.90;;;27.20;55.20;;;;;;5072209;28;20175;-69
2023/02/16 00:14:44;;;;;;;11.10;2.43;;;26.90;55.30;;;;;;5072912;28;20685;-67
2023/02/16 00:17:11;;;;;;;8.67;1.90;;;27.00;55.40;;;;;;5072520;28;20214;-68
2023/02/16 00:19:43;;;;;;;13.33;2.33;;;27.20;55.10;;;;;;5070988;28;20194;-68
2023/02/16 00:22:11;;;;;;;8.07;2.03;;;27.30;56.00;;;;;;5072401;28;20245;-68
2023/02/16 00:24:38;;;;;;;9.50;1.73;;;27.30;55.00;;;;;;5069871;28;20184;-68
2023/02/16 00:27:14;;;;;;;8.13;2.07;;;27.60;55.40;;;;;;5071679;28;20184;-70
2023/02/16 00:29:42;;;;;;;10.43;1.60;;;27.30;54.80;;;;;;5072358;28;20171;-69
2023/02/16 00:32:11;;;;;;;13.33;3.17;;;27.40;55.60;;;;;;5067821;28;20183;-69
2023/02/16 00:34:41;;;;;;;4.57;1.60;;;27.80;55.10;;;;;;5071125;28;20183;-69
2023/02/16 00:37:11;;;;;;;8.33;1.80;;;27.80;54.00;;;;;;5072903;28;20180;-69
2023/02/16 00:39:40;;;;;;;7.00;2.00;;;27.90;53.80;;;;;;5070158;28;20183;-69
2023/02/16 00:42:20;;;;;;;8.63;2.20;;;28.10;53.90;;;;;;5072067;28;20199;-69
2023/02/16 00:44:50;;;;;;;5.70;1.80;;;28.20;53.70;;;;;;5071907;28;20186;-69
2023/02/16 00:47:29;;;;;;;10.67;2.63;;;28.30;53.90;;;;;;5071768;28;20219;-69
2023/02/16 00:49:57;;;;;;;10.43;2.47;;;28.10;53.50;;;;;;5072069;27;20187;-69
2023/02/16 00:52:34;;;;;;;7.93;2.03;;;28.00;53.60;;;;;;5070456;28;20210;-69
2023/02/16 00:55:05;;;;;;;9.50;2.07;;;27.90;54.10;;;;;;5067182;28;20543;-69
2023/02/16 00:57:47;;;;;;;10.17;2.60;;;27.70;54.20;;;;;;5070588;28;20179;-68
2023/02/16 01:00:25;;;;;;;10.97;2.90;;;27.70;53.80;;;;;;5071588;28;20182;-69
2023/02/16 01:02:56;;;;;;;6.17;2.23;;;28.10;54.10;;;;;;5071633;28;20271;-69
2023/02/16 01:05:24;;;;;;;5.73;1.50;;;28.20;53.80;;;;;;5065252;28;20175;-71
2023/02/16 01:13:25;;;;;;;13.17;1.97;;;27.90;53.60;;;;;;5071615;28;20229;-69
2023/02/16 01:15:53;;;;;;;7.50;2.00;;;28.20;53.30;;;;;;5070783;28;20205;-73
2023/02/16 01:18:21;;;;;;;15.23;1.90;;;28.30;53.10;;;;;;5070558;28;20742;-71
2023/02/16 01:20:48;;;;;;;9.43;2.23;;;28.10;53.70;;;;;;5070509;28;20194;-71
2023/02/16 01:23:16;;;;;;;8.27;1.60;;;28.10;53.90;;;;;;5071116;28;20643;-70
2023/02/16 01:25:43;;;;;;;8.13;1.80;;;28.30;53.60;;;;;;5071439;28;20184;-72
2023/02/16 01:28:22;;;;;;;10.23;1.90;;;28.60;52.70;;;;;;5071539;28;20249;-70
2023/02/16 01:30:51;;;;;;;11.03;2.90;;;28.60;52.90;;;;;;5071077;28;20252;-70
2023/02/16 01:33:19;;;;;;;8.20;2.97;;;28.60;52.60;;;;;;5071698;28;20704;-71
2023/02/16 01:35:47;;;;;;;9.30;2.23;;;28.60;52.90;;;;;;5070299;28;20213;-70
2023/02/16 01:38:24;;;;;;;9.27;2.00;;;28.50;52.80;;;;;;5068004;28;20522;-70
2023/02/16 01:40:55;;;;;;;7.97;1.77;;;28.70;53.30;;;;;;5070345;28;20917;-70
2023/02/16 01:43:25;;;;;;;5.17;2.40;;;28.90;52.30;;;;;;5066912;28;20208;-71
2023/02/16 01:46:08;;;;;;;11.33;2.43;;;29.10;52.40;;;;;;5070725;28;20626;-69
2023/02/16 01:48:35;;;;;;;7.70;1.80;;;29.10;52.20;;;;;;5071097;28;20327;-70
2023/02/16 01:51:11;;;;;;;6.30;2.20;;;29.00;52.90;;;;;;5068945;28;20183;-70
2023/02/16 01:54:02;;;;;;;11.57;2.57;;;29.30;51.80;;;;;;5070698;28;20182;-70
2023/02/16 01:57:03;;;;;;;7.80;2.53;;;28.80;52.70;;;;;;5070629;28;20584;-70
2023/02/16 01:59:40;;;;;;;14.13;2.53;;;28.90;53.10;;;;;;5069574;28;20178;-69
2023/02/16 02:02:39;;;;;;;6.20;2.23;;;29.10;53.00;;;;;;5071017;28;20248;-70
2023/02/16 02:05:34;;;;;;;12.80;5.07;;;28.80;53.20;;;;;;5069234;28;20245;-69
2023/02/16 02:08:07;;;;;;;8.97;2.60;;;29.30;52.40;;;;;;5070685;28;20175;-70
2023/02/16 02:10:34;;;;;;;8.17;2.17;;;28.90;52.00;;;;;;5067789;28;20248;-70
2023/02/16 02:13:16;;;;;;;12.37;2.57;;;29.30;51.80;;;;;;5070686;28;20638;-69
2023/02/16 02:15:43;;;;;;;10.07;2.10;;;29.80;50.70;;;;;;5070715;28;20183;-69
2023/02/16 02:18:11;;;;;;;9.60;2.30;;;29.80;49.60;;;;;;5071105;28;20171;-71
2023/02/16 02:24:44;;;;;;;7.80;2.40;;;29.70;50.10;;;;;;5064120;28;20214;-70
2023/02/16 02:27:41;;;;;;;7.20;2.27;;;29.80;50.50;;;;;;5065230;28;20183;-70
2023/02/16 02:30:40;;;;;;;6.90;2.40;;;29.80;49.20;;;;;;5070507;28;20183;-71
2023/02/16 02:33:13;;;;;;;6.80;1.97;;;29.80;49.40;;;;;;5054949;28;20553;-71
2023/02/16 02:36:28;;;;;;;7.43;2.20;;;29.90;48.10;;;;;;5070730;28;20176;-70
2023/02/16 02:39:13;;;;;;;3.63;1.80;;;29.80;48.00;;;;;;5055062;28;20260;-71
2023/02/16 02:44:30;;;;;;;5.83;1.83;;;29.70;48.20;;;;;;5070215;28;20197;-70
2023/02/16 02:46:58;;;;;;;8.27;2.23;;;29.90;48.00;;;;;;5069755;28;20188;-68
2023/02/16 02:49:25;;;;;;;10.70;2.10;;;29.90;47.90;;;;;;5067672;28;20175;-72
2023/02/16 02:51:52;;;;;;;7.70;1.80;;;29.80;47.40;;;;;;5070720;28;20645;-69
2023/02/16 03:03:14;;;;;;;8.20;1.80;;;30.10;47.60;;;;;;5072738;28;20237;-70
2023/02/16 03:06:04;;;;;;;7.47;2.00;;;30.00;48.30;;;;;;5072689;28;20618;-70
2023/02/16 03:08:35;;;;;;;5.83;1.80;;;30.10;47.70;;;;;;5073501;28;20191;-70
2023/02/16 03:14:36;;;;;;;3.97;1.55;;;30.40;46.60;;;;;;5066532;28;20253;-70
2023/02/16 03:34:13;;;;;;;6.78;1.50;;;30.60;44.50;;;;;;5071087;28;20219;-73
2023/02/16 03:37:07;;;;;;;5.45;2.00;;;30.90;44.50;;;;;;5074538;28;20175;-74
2023/02/16 03:40:26;;;;;;;5.72;1.70;;;30.80;44.80;;;;;;5071166;28;20187;-69
2023/02/16 03:42:27;;;;;;;7.30;1.88;;;30.80;44.90;;;;;;5070175;28;20692;-73
2023/02/16 03:44:55;;;;;;;4.53;1.35;;;31.20;44.40;;;;;;5070094;28;20183;-73
2023/02/16 03:47:22;;;;;;;5.15;1.58;;;30.70;44.60;;;;;;5071595;28;20172;-73
2023/02/16 03:49:50;;;;;;;6.05;1.63;;;31.10;44.80;;;;;;5072047;28;20287;-73
2023/02/16 03:52:18;;;;;;;4.07;1.60;;;31.60;43.80;;;;;;5073853;28;20184;-75
2023/02/16 03:54:55;;;;;;;6.50;1.65;;;31.70;43.50;;;;;;5073684;28;20178;-73
2023/02/16 03:57:25;;;;;;;7.38;1.60;;;31.10;44.20;;;;;;5073259;28;20672;-72
2023/02/16 03:59:59;;;;;;;8.15;1.50;;;31.20;43.40;;;;;;5073894;28;20187;-75
2023/02/16 04:02:28;;;;;;;4.68;1.45;;;31.20;43.90;;;;;;5068603;28;20261;-71
2023/02/16 04:05:02;;;;;;;6.13;1.80;;;31.50;43.40;;;;;;5073135;27;20321;-75
2023/02/16 04:07:56;;;;;;;9.25;1.90;;;31.80;42.90;;;;;;5072309;28;20585;-77
2023/02/16 04:10:30;;;;;;;6.00;1.58;;;31.70;43.60;;;;;;5071082;28;20187;-79
2023/02/16 04:12:58;;;;;;;5.55;1.67;;;31.00;43.90;;;;;;5069176;28;20565;-72
2023/02/16 04:15:29;;;;;;;10.82;1.92;;;31.30;43.40;;;;;;5068381;28;20218;-73
2023/02/16 04:17:56;;;;;;;6.32;1.55;;;31.40;43.00;;;;;;5070424;28;20234;-75
2023/02/16 04:20:30;;;;;;;6.28;1.60;;;31.10;43.60;;;;;;5066755;28;20618;-73
2023/02/16 04:22:57;;;;;;;8.13;1.70;;;31.20;42.90;;;;;;5065494;28;20230;-70
2023/02/16 04:25:25;;;;;;;3.15;1.20;;;30.80;43.90;;;;;;5070315;28;20179;-77
2023/02/16 04:27:54;;;;;;;5.28;1.17;;;30.80;43.50;;;;;;5067429;28;20191;-70
2023/02/16 04:30:27;;;;;;;6.07;1.40;;;30.90;43.90;;;;;;5063711;28;20191;-70
2023/02/16 04:32:55;;;;;;;7.43;1.40;;;30.90;43.20;;;;;;5067679;28;20532;-72
2023/02/16 04:35:23;;;;;;;4.38;1.58;;;31.10;42.90;;;;;;5067064;28;20260;-73
2023/02/16 04:37:50;;;;;;;2.92;1.10;;;31.00;43.20;;;;;;5069591;28;20206;-70
2023/02/16 04:40:18;;;;;;;5.25;1.40;;;31.20;42.80;;;;;;5068897;28;20362;-70
2023/02/16 04:42:45;;;;;;;4.03;1.38;;;31.30;42.10;;;;;;5069291;28;20202;-70
2023/02/16 04:45:13;;;;;;;4.97;1.40;;;31.40;42.80;;;;;;5069795;28;21449;-71
2023/02/16 04:47:41;;;;;;;3.08;1.23;;;31.00;42.10;;;;;;5069036;28;20175;-71
2023/02/16 04:50:10;;;;;;;8.30;1.63;;;31.30;41.60;;;;;;5067507;28;20283;-72
2023/02/16 04:52:37;;;;;;;3.45;1.00;;;31.80;41.00;;;;;;5065206;28;20654;-70
2023/02/16 04:55:06;;;;;;;2.97;1.05;;;31.20;41.30;;;;;;5069888;28;20591;-72
2023/02/16 04:57:33;;;;;;;4.30;1.20;;;31.20;39.70;;;;;;5065915;28;20240;-71
2023/02/16 05:00:01;;;;;;;2.60;0.90;;;31.30;40.00;;;;;;5065924;28;20178;-77
2023/02/16 05:02:28;;;;;;;3.30;1.17;;;31.10;40.10;;;;;;5068272;28;20262;-74
2023/02/16 05:04:55;;;;;;;7.07;1.42;;;31.40;39.90;;;;;;5066019;28;20227;-73
2023/02/16 05:07:23;;;;;;;6.57;1.75;;;30.80;39.90;;;;;;5065069;28;20640;-72
2023/02/16 05:09:50;;;;;;;4.13;1.00;;;31.00;40.60;;;;;;5064586;28;20183;-70
2023/02/16 05:15:04;;;;;;;5.63;1.50;;;31.90;39.50;;;;;;5068306;28;20197;-71
2023/02/16 05:17:32;;;;;;;3.78;1.38;;;31.60;39.90;;;;;;5070041;28;20187;-70
2023/02/16 05:20:00;;;;;;;4.88;1.35;;;31.60;40.10;;;;;;5068694;28;20214;-70
2023/02/16 05:22:28;;;;;;;7.22;1.30;;;31.00;41.50;;;;;;5065395;28;20209;-69
2023/02/16 05:24:55;;;;;;;3.33;1.10;;;32.30;39.90;;;;;;5068957;28;20179;-70
2023/02/16 05:27:27;;;;;;;4.63;1.25;;;32.60;38.00;;;;;;5067353;28;20187;-69
2023/02/16 05:29:55;;;;;;;5.63;0.98;;;32.00;38.50;;;;;;5069424;28;20582;-73
2023/02/16 05:32:22;;;;;;;1.45;1.00;;;31.70;39.00;;;;;;5065627;28;20237;-70
2023/02/16 05:34:50;;;;;;;4.07;1.20;;;31.80;38.40;;;;;;5066329;28;20187;-69
2023/02/16 05:37:18;;;;;;;3.95;1.20;;;31.40;39.40;;;;;;5066279;28;20218;-73
2023/02/16 05:39:46;;;;;;;3.03;0.93;;;31.80;39.00;;;;;;5066174;28;20312;-70
2023/02/16 05:42:13;;;;;;;2.08;1.05;;;32.00;39.20;;;;;;5069046;28;20186;-68
2023/02/16 05:44:40;;;;;;;5.03;1.27;;;32.30;39.10;;;;;;5067778;28;20241;-73
2023/02/16 05:47:08;;;;;;;6.50;1.30;;;31.30;40.30;;;;;;5068940;28;20198;-68
2023/02/16 05:49:35;;;;;;;5.93;1.55;;;31.10;41.40;;;;;;5066384;28;20184;-74
2023/02/16 05:52:02;;;;;;;5.57;1.10;;;30.90;41.70;;;;;;5069771;28;20187;-69
2023/02/16 05:54:30;;;;;;;4.05;1.00;;;31.50;40.80;;;;;;5068924;28;20317;-70
2023/02/16 05:56:57;;;;;;;6.55;1.50;;;31.20;40.90;;;;;;5069186;28;20183;-71
2023/02/16 05:59:24;;;;;;;6.15;1.70;;;30.90;42.20;;;;;;5065126;28;20191;-71
2023/02/16 06:01:52;;;;;;;5.43;1.27;;;31.30;40.90;;;;;;5069492;28;20179;-70
2023/02/16 06:04:21;;;;;;;8.60;1.13;;;31.20;40.70;;;;;;5061307;28;21577;-69
2023/02/16 06:06:49;;;;;;;3.25;1.20;;;31.10;40.90;;;;;;5068648;28;20851;-70
2023/02/16 06:09:16;;;;;;;5.43;1.02;;;31.40;40.10;;;;;;5070591;28;20187;-78
2023/02/16 06:11:44;;;;;;;3.95;1.25;;;30.90;41.50;;;;;;5070158;28;20258;-70
2023/02/16 06:14:14;;;;;;;4.68;1.58;;;30.80;42.70;;;;;;5070880;28;20175;-70
2023/02/16 06:16:44;;;;;;;4.70;1.30;;;30.80;42.10;;;;;;5069969;28;20179;-70
2023/02/16 06:19:12;;;;;;;7.38;1.30;;;31.30;42.00;;;;;;5062240;28;20270;-72
2023/02/16 06:21:41;;;;;;;7.20;1.27;;;31.80;41.70;;;;;;5068666;28;20719;-72
2023/02/16 06:24:09;;;;;;;4.90;1.30;;;31.40;41.20;;;;;;5061988;28;20226;-77
2023/02/16 06:26:37;;;;;;;3.88;1.10;;;31.20;41.30;;;;;;5069668;28;20262;-70
2023/02/16 06:29:05;;;;;;;8.30;1.40;;;31.10;41.30;;;;;;5069169;28;20546;-75
2023/02/16 06:31:32;;;;;;;7.82;1.50;;;30.70;41.60;;;;;;5068840;28;20506;-71
2023/02/16 06:34:02;;;;;;;5.00;1.10;;;30.40;42.50;;;;;;5070784;28;20260;-69
2023/02/16 06:36:30;;;;;;;8.43;1.77;;;30.80;42.40;;;;;;5068416;28;20183;-70
2023/02/16 06:38:57;;;;;;;5.05;1.13;;;31.00;42.80;;;;;;5072630;28;20565;-72
2023/02/16 06:41:33;;;;;;;8.18;1.20;;;30.40;43.40;;;;;;5074352;28;20198;-73
2023/02/16 06:44:02;;;;;;;6.05;1.20;;;30.00;44.10;;;;;;5073368;28;20758;-70
2023/02/16 06:46:29;;;;;;;6.70;1.40;;;30.20;44.10;;;;;;5073346;28;20214;-73
2023/02/16 06:48:57;;;;;;;7.22;1.30;;;29.80;45.20;;;;;;5072404;28;20604;-71
2023/02/16 06:51:24;;;;;;;5.93;1.75;;;30.10;45.40;;;;;;5072990;28;20230;-70
2023/02/16 06:53:52;;;;;;;4.22;1.33;;;29.90;46.20;;;;;;5073390;27;20195;-72
2023/02/16 06:56:19;;;;;;;6.85;1.40;;;30.30;44.80;;;;;;5074103;28;20193;-72
2023/02/16 06:58:47;;;;;;;4.97;1.42;;;30.30;44.90;;;;;;5073608;28;20198;-70
2023/02/16 07:01:16;;;;;;;3.42;1.30;;;30.30;45.90;;;;;;5073428;28;20175;-73
2023/02/16 07:03:44;;;;;;;7.88;1.83;;;30.30;45.10;;;;;;5072113;28;20296;-70
2023/02/16 07:06:11;;;;;;;3.92;1.30;;;30.10;46.10;;;;;;5074220;28;20187;-70
2023/02/16 07:08:38;;;;;;;4.40;1.30;;;30.20;45.70;;;;;;5073566;28;20262;-69
2023/02/16 07:11:06;;;;;;;7.30;1.65;;;30.00;45.80;;;;;;5074414;28;20205;-70
2023/02/16 07:13:36;;;;;;;4.85;1.30;;;30.20;46.10;;;;;;5073060;28;20247;-77
2023/02/16 07:16:07;;;;;;;6.00;1.47;;;30.00;46.20;;;;;;5067064;28;20175;-70
2023/02/16 07:18:34;;;;;;;5.27;1.20;;;30.10;46.50;;;;;;5071939;28;20637;-70
2023/02/16 07:21:02;;;;;;;9.38;1.42;;;29.90;46.90;;;;;;5067751;28;20183;-72
2023/02/16 07:23:30;;;;;;;8.47;1.47;;;29.50;48.20;;;;;;5072932;28;20226;-71
2023/02/16 07:25:57;;;;;;;8.48;1.10;;;29.40;48.90;;;;;;5067586;28;20194;-72
2023/02/16 07:28:25;;;;;;;8.17;1.50;;;29.20;50.20;;;;;;5073409;28;20597;-79
2023/02/16 07:30:52;;;;;;;4.10;1.30;;;29.60;48.80;;;;;;5072148;28;20224;-77
2023/02/16 07:33:20;;;;;;;5.97;1.40;;;29.20;49.00;;;;;;5073087;28;20191;-70
2023/02/16 07:35:49;;;;;;;6.80;1.33;;;29.20;49.40;;;;;;5072921;28;20549;-73
2023/02/16 07:38:16;;;;;;;5.70;1.27;;;28.70;49.70;;;;;;5073357;28;20195;-75
2023/02/16 07:40:43;;;;;;;6.37;1.37;;;28.80;51.10;;;;;;5073125;28;20186;-77
2023/02/16 07:43:11;;;;;;;6.00;1.40;;;29.00;51.50;;;;;;5073083;28;20240;-74
2023/02/16 07:45:38;;;;;;;3.30;1.20;;;28.20;54.70;;;;;;5072912;28;20175;-69
2023/02/16 07:48:05;;;;;;;5.93;1.50;;;28.10;54.60;;;;;;5073160;28;20191;-70
2023/02/16 07:50:33;;;;;;;4.83;1.40;;;28.30;56.00;;;;;;5073286;28;20191;-69
2023/02/16 07:53:03;;;;;;;6.77;1.60;;;28.30;56.10;;;;;;5073155;28;20881;-71
2023/02/16 07:55:31;;;;;;;5.00;1.50;;;28.30;55.60;;;;;;5073032;28;20671;-70
2023/02/16 07:57:58;;;;;;;4.00;1.20;;;27.70;58.70;;;;;;5073492;28;20560;-68
2023/02/16 08:00:26;;;;;;;9.63;1.73;;;27.70;59.30;;;;;;5071525;28;20191;-69
2023/02/16 08:02:54;;;;;;;7.53;1.93;;;27.20;61.30;;;;;;5072646;28;20207;-70
2023/02/16 08:05:21;;;;;;;8.30;1.80;;;26.60;64.00;;;;;;5072859;28;20266;-74
2023/02/16 08:07:49;;;;;;;9.37;2.07;;;26.10;65.50;;;;;;5072764;28;20272;-70
2023/02/16 08:10:16;;;;;;;4.87;1.77;;;25.90;66.50;;;;;;5073061;28;20228;-70
2023/02/16 08:12:44;;;;;;;8.50;2.00;;;25.80;68.00;;;;;;5073196;28;20182;-66
2023/02/16 08:15:11;;;;;;;9.73;2.30;;;25.60;68.90;;;;;;5072089;28;20592;-70
2023/02/16 08:17:39;;;;;;;7.37;1.60;;;25.40;69.20;;;;;;5073226;28;20192;-68
2023/02/16 08:20:08;;;;;;;8.07;1.60;;;25.20;70.80;;;;;;5069618;28;20188;-69
2023/02/16 08:22:36;;;;;;;9.43;2.43;;;25.10;72.20;;;;;;5071445;28;20234;-73
2023/02/16 08:25:04;;;;;;;16.93;3.07;;;25.00;72.60;;;;;;5071639;28;20274;-75
2023/02/16 08:27:31;;;;;;;8.13;1.90;;;24.80;73.60;;;;;;5072169;28;20187;-70
2023/02/16 08:29:59;;;;;;;7.63;1.70;;;24.70;74.30;;;;;;5068861;28;20286;-74
2023/02/16 08:32:27;;;;;;;11.80;2.20;;;24.60;74.70;;;;;;5071878;28;20215;-69
2023/02/16 08:34:56;;;;;;;10.43;2.13;;;24.50;75.40;;;;;;5072320;28;20545;-70
2023/02/16 08:37:23;;;;;;;8.50;1.90;;;24.50;75.40;;;;;;5072100;28;20229;-72
2023/02/16 08:39:51;;;;;;;10.63;2.23;;;24.40;75.50;;;;;;5071678;28;20682;-69
2023/02/16 08:42:18;;;;;;;7.67;1.67;;;24.30;75.70;;;;;;5072049;28;20175;-70
2023/02/16 08:44:45;;;;;;;8.93;1.77;;;24.30;75.80;;;;;;5071803;28;20187;-70
2023/02/16 08:47:15;;;;;;;10.20;2.10;;;24.30;75.90;;;;;;5071154;28;20283;-72
2023/02/16 08:49:43;;;;;;;8.40;2.37;;;24.20;75.80;;;;;;5071609;28;20613;-73
2023/02/16 08:52:11;;;;;;;11.07;2.57;;;24.10;75.70;;;;;;5068110;28;20190;-75
2023/02/16 08:54:39;;;;;;;9.83;3.00;;;24.10;75.60;;;;;;5070219;28;20660;-70
2023/02/16 08:57:06;;;;;;;12.90;3.80;;;24.00;76.30;;;;;;5071256;28;20182;-69
2023/02/16 08:59:34;;;;;;;12.83;2.40;;;24.00;76.50;;;;;;5070064;28;20202;-70
2023/02/16 09:02:01;;;;;;;8.37;2.33;;;23.90;76.70;;;;;;5068861;28;20183;-74
2023/02/16 09:04:29;;;;;;;8.60;1.60;;;23.90;76.80;;;;;;5067357;28;20223;-75
2023/02/16 09:06:58;;;;;;;11.17;2.00;;;23.80;77.00;;;;;;5071578;28;20179;-72
2023/02/16 09:09:26;;;;;;;11.63;2.30;;;23.80;77.00;;;;;;5067548;28;20291;-71
2023/02/16 09:11:54;;;;;;;9.03;1.87;;;23.80;77.50;;;;;;5071519;27;20180;-74
2023/02/16 09:14:22;;;;;;;8.90;2.13;;;23.80;77.20;;;;;;5071431;28;20316;-76
2023/02/16 09:16:49;;;;;;;10.57;2.10;;;23.80;77.00;;;;;;5067585;28;20267;-76
2023/02/16 09:19:19;;;;;;;10.47;2.00;;;23.80;77.00;;;;;;5069823;28;20187;-72
2023/02/16 09:21:49;;;;;;;9.37;1.97;;;23.70;77.00;;;;;;5069687;28;20179;-77
2023/02/16 09:24:17;;;;;;;7.10;1.60;;;23.70;77.10;;;;;;5068218;28;20694;-73
2023/02/16 09:26:45;;;;;;;9.00;1.83;;;23.70;77.20;;;;;;5070379;28;20178;-72
2023/02/16 09:29:13;;;;;;;8.30;2.10;;;23.70;77.40;;;;;;5071263;28;20179;-70
2023/02/16 09:31:43;;;;;;;6.90;1.83;;;23.60;77.80;;;;;;5069796;28;20187;-71
2023/02/16 09:34:21;;;;;;;12.13;2.53;;;23.60;78.00;;;;;;5065178;28;20179;-71
2023/02/16 09:36:50;;;;;;;8.67;1.93;;;23.60;78.20;;;;;;5068809;28;20240;-73
2023/02/16 09:39:17;;;;;;;7.47;2.07;;;23.50;77.80;;;;;;5069404;28;20187;-71
2023/02/16 09:41:48;;;;;;;7.00;1.93;;;23.50;77.90;;;;;;5071063;28;20183;-74
2023/02/16 09:44:30;;;;;;;9.53;1.83;;;23.50;78.00;;;;;;5067869;28;20248;-71
2023/02/16 09:47:00;;;;;;;12.70;2.20;;;23.50;78.00;;;;;;5067971;28;20179;-76
2023/02/16 09:49:45;;;;;;;15.83;2.40;;;23.50;78.00;;;;;;5067803;28;20673;-71
2023/02/16 09:52:33;;;;;;;8.27;1.57;;;23.40;78.20;;;;;;5069736;28;20711;-74
2023/02/16 09:55:04;;;;;;;9.50;2.30;;;23.40;78.40;;;;;;5060366;28;20180;-74
2023/02/16 09:57:54;;;;;;;9.33;2.20;;;23.50;78.60;;;;;;5067894;28;20176;-70
2023/02/16 10:00:40;;;;;;;8.90;1.87;;;23.40;78.60;;;;;;5070174;28;20207;-74
2023/02/16 10:03:38;;;;;;;9.57;2.67;;;23.40;78.80;;;;;;5065383;28;20239;-69
2023/02/16 10:06:05;;;;;;;8.03;2.20;;;23.30;78.90;;;;;;5070918;28;20176;-70
2023/02/16 10:08:44;;;;;;;12.27;2.00;;;23.30;78.70;;;;;;5064724;28;20545;-73
2023/02/16 10:11:36;;;;;;;8.40;1.90;;;23.30;78.70;;;;;;5071449;28;20269;-72
2023/02/16 10:14:10;;;;;;;8.77;2.03;;;23.30;78.60;;;;;;5070463;28;20211;-70
2023/02/16 10:16:44;;;;;;;9.27;1.80;;;23.30;78.70;;;;;;5071925;28;20179;-70
2023/02/16 10:19:20;;;;;;;11.80;2.27;;;23.30;78.50;;;;;;5075027;28;20558;-69
2023/02/16 10:21:52;;;;;;;8.93;2.20;;;23.30;78.70;;;;;;5069116;28;20187;-69
2023/02/16 10:24:20;;;;;;;12.13;2.10;;;23.30;78.60;;;;;;5074556;28;20563;-66
2023/02/16 10:26:57;;;;;;;11.57;1.97;;;23.30;78.50;;;;;;5064426;28;20595;-70
2023/02/16 10:29:25;;;;;;;10.00;1.97;;;23.30;78.70;;;;;;5068848;28;20647;-67
2023/02/16 10:32:21;;;;;;;9.20;1.60;;;23.20;78.70;;;;;;5072602;28;20210;-70
2023/02/16 10:34:59;;;;;;;12.90;2.17;;;23.20;78.80;;;;;;5073282;28;20213;-69
2023/02/16 10:37:41;;;;;;;8.20;1.90;;;23.20;78.80;;;;;;5070990;28;20555;-68
2023/02/16 10:40:31;;;;;;;11.70;1.90;;;23.20;78.90;;;;;;5071174;28;20210;-69
2023/02/16 10:43:16;;;;;;;9.37;1.80;;;23.20;79.00;;;;;;5062609;28;20226;-70
2023/02/16 10:45:58;;;;;;;10.60;1.87;;;23.20;79.00;;;;;;5068959;28;20187;-70
2023/02/16 10:48:26;;;;;;;15.00;2.40;;;23.20;78.90;;;;;;5070383;28;20188;-70
2023/02/16 10:51:11;;;;;;;14.00;2.23;;;23.20;79.00;;;;;;5072913;28;20180;-74
2023/02/16 10:53:56;;;;;;;11.13;2.03;;;23.10;78.70;;;;;;5073634;28;20187;-74
2023/02/16 10:56:40;;;;;;;12.87;2.30;;;23.10;78.60;;;;;;5074279;28;20190;-71
2023/02/16 10:59:18;;;;;;;7.77;1.90;;;23.10;78.90;;;;;;5073704;28;20621;-75
2023/02/16 11:01:51;;;;;;;11.13;2.03;;;23.10;78.90;;;;;;5071494;28;20219;-70
2023/02/16 11:04:30;;;;;;;12.70;2.03;;;23.10;78.90;;;;;;5071536;28;20230;-75
2023/02/16 11:07:25;;;;;;;11.27;2.27;;;23.10;79.20;;;;;;5070245;28;20182;-71
2023/02/16 11:09:56;;;;;;;12.07;2.53;;;23.10;79.00;;;;;;5071239;28;20249;-71
2023/02/16 11:12:58;;;;;;;13.13;2.40;;;23.10;79.20;;;;;;5073358;28;20176;-71
2023/02/16 11:15:26;;;;;;;10.23;2.00;;;23.10;79.30;;;;;;5066901;28;20577;-71
2023/02/16 11:18:06;;;;;;;15.97;2.63;;;23.10;79.60;;;;;;5070650;28;20266;-70
2023/02/16 11:20:46;;;;;;;8.80;2.17;;;23.00;79.50;;;;;;5070463;28;20180;-70
2023/02/16 11:23:16;;;;;;;10.90;2.40;;;23.00;79.50;;;;;;5066850;28;20206;-73
2023/02/16 11:26:11;;;;;;;12.80;2.00;;;23.00;79.40;;;;;;5072591;28;20565;-73
2023/02/16 11:28:41;;;;;;;14.00;2.20;;;23.00;79.40;;;;;;5069945;28;20278;-71
2023/02/16 11:31:33;;;;;;;11.53;2.07;;;23.00;79.40;;;;;;5073064;28;20175;-70
2023/02/16 11:34:05;;;;;;;17.03;3.63;;;23.00;79.50;;;;;;5071318;28;20641;-72
2023/02/16 11:36:41;;;;;;;14.90;5.80;;;23.00;79.60;;;;;;5070403;28;20267;-69
2023/02/16 11:39:21;;;;;;;19.30;6.93;;;22.90;79.70;;;;;;5071960;28;20240;-69
2023/02/16 11:42:00;;;;;;;12.03;2.20;;;22.90;79.80;;;;;;5072710;28;20183;-71
2023/02/16 11:44:43;;;;;;;12.53;2.80;;;22.80;79.70;;;;;;5071399;28;20225;-70
2023/02/16 11:47:24;;;;;;;13.57;2.33;;;22.90;79.80;;;;;;5072891;28;20175;-70
2023/02/16 11:50:24;;;;;;;13.13;2.03;;;22.80;79.80;;;;;;5073102;28;20214;-73
2023/02/16 11:52:55;;;;;;;12.00;3.03;;;22.80;79.00;;;;;;5072883;28;20680;-70
2023/02/16 11:55:34;;;;;;;12.03;2.50;;;22.80;79.10;;;;;;5072524;28;20270;-70
2023/02/16 11:58:28;;;;;;;10.07;2.40;;;22.90;79.30;;;;;;5068606;28;20269;-71
2023/02/16 12:01:16;;;;;;;12.37;1.87;;;22.80;79.20;;;;;;5072544;28;20175;-71
2023/02/16 12:04:07;;;;;;;13.57;2.20;;;22.80;79.30;;;;;;5072614;28;20823;-70
2023/02/16 12:06:43;;;;;;;7.10;1.80;;;22.80;79.30;;;;;;5070733;28;20179;-70
2023/02/16 12:09:13;;;;;;;12.03;2.10;;;22.80;79.10;;;;;;5070524;28;20248;-69
2023/02/16 12:12:04;;;;;;;12.60;2.53;;;22.80;78.90;;;;;;5072831;28;20595;-75
2023/02/16 12:14:43;;;;;;;14.27;2.33;;;22.80;78.60;;;;;;5071356;28;20266;-69
2023/02/16 12:17:19;;;;;;;12.97;2.43;;;22.80;78.70;;;;;;5070244;28;20187;-69
2023/02/16 12:20:12;;;;;;;10.27;2.17;;;22.80;78.90;;;;;;5072398;28;20191;-70
2023/02/16 12:22:48;;;;;;;10.93;2.30;;;22.80;78.80;;;;;;5063909;28;20218;-71
2023/02/16 12:26:00;;;;;;;13.33;2.43;;;22.80;78.70;;;;;;5069156;28;20211;-71
2023/02/16 12:29:12;;;;;;;13.60;2.33;;;22.80;78.70;;;;;;5035306;28;20194;-69
2023/02/16 12:32:03;;;;;;;13.17;2.60;;;22.80;78.80;;;;;;5068031;28;20278;-69
2023/02/16 12:35:13;;;;;;;14.13;2.20;;;22.70;78.70;;;;;;5071459;28;20258;-69
2023/02/16 12:38:00;;;;;;;11.70;2.40;;;22.60;78.90;;;;;;5051105;28;20215;-70
2023/02/16 12:40:37;;;;;;;11.87;2.17;;;22.60;79.20;;;;;;5049611;28;20196;-70
2023/02/16 12:43:41;;;;;;;13.77;2.37;;;22.70;79.40;;;;;;5075355;28;20241;-70
2023/02/16 12:46:34;;;;;;;11.87;2.53;;;22.60;79.40;;;;;;5069990;28;20179;-70
2023/02/16 12:49:13;;;;;;;10.13;1.70;;;22.60;79.40;;;;;;5071226;28;20645;-69
2023/02/16 12:51:57;;;;;;;11.27;1.97;;;22.60;79.40;;;;;;5070778;28;20183;-70
2023/02/16 12:55:07;;;;;;;10.03;1.90;;;22.60;79.70;;;;;;5072239;28;20269;-70
2023/02/16 12:57:35;;;;;;;11.23;2.37;;;22.50;79.70;;;;;;5049563;28;20183;-69
2023/02/16 13:00:16;;;;;;;14.37;2.30;;;22.50;79.90;;;;;;5075351;28;20617;-70
2023/02/16 13:03:27;;;;;;;9.70;2.03;;;22.50;79.90;;;;;;5070952;28;20211;-70
2023/02/16 13:06:43;;;;;;;11.50;2.00;;;22.40;80.00;;;;;;5072203;28;20179;-70
2023/02/16 13:09:37;;;;;;;14.13;2.43;;;22.50;80.10;;;;;;5018151;28;20212;-70
2023/02/16 13:12:40;;;;;;;15.77;2.50;;;22.40;80.20;;;;;;5068528;28;20187;-70
2023/02/16 13:15:47;;;;;;;10.33;2.60;;;22.40;80.40;;;;;;5070723;28;20228;-70
2023/02/16 13:18:20;;;;;;;13.13;2.07;;;22.40;80.60;;;;;;5061590;28;20338;-70
2023/02/16 13:21:08;;;;;;;13.70;2.50;;;22.40;80.50;;;;;;5071306;28;20218;-70
2023/02/16 13:23:50;;;;;;;11.30;2.47;;;22.40;80.40;;;;;;5071186;28;20265;-70
2023/02/16 13:26:40;;;;;;;13.40;2.57;;;22.40;80.60;;;;;;5067421;28;20256;-73
2023/02/16 13:29:27;;;;;;;14.00;2.50;;;22.30;80.80;;;;;;5069788;28;20665;-70
2023/02/16 13:32:19;;;;;;;8.50;1.57;;;22.40;80.70;;;;;;5069303;28;20187;-70
2023/02/16 13:35:31;;;;;;;11.17;2.43;;;22.30;80.70;;;;;;5069632;28;20274;-70
2023/02/16 13:38:29;;;;;;;12.50;2.23;;;22.30;80.90;;;;;;5063603;28;20208;-70
2023/02/16 13:40:59;;;;;;;9.23;2.03;;;22.30;81.10;;;;;;5071073;28;20198;-70
2023/02/16 13:43:41;;;;;;;7.00;1.80;;;22.30;81.00;;;;;;5067608;28;20211;-70
2023/02/16 13:46:20;;;;;;;14.17;2.50;;;22.30;81.30;;;;;;5067543;28;20234;-70
2023/02/16 13:48:54;;;;;;;14.13;2.37;;;22.30;81.30;;;;;;5069158;28;20855;-70
2023/02/16 13:51:29;;;;;;;7.27;2.20;;;22.30;81.20;;;;;;5072026;28;20175;-70
2023/02/16 13:54:01;;;;;;;11.70;2.23;;;22.20;81.40;;;;;;5067043;28;20197;-70
2023/02/16 13:56:31;;;;;;;10.23;2.20;;;22.20;81.70;;;;;;5070307;28;20183;-70
2023/02/16 13:59:19;;;;;;;12.93;2.30;;;22.10;81.70;;;;;;5071020;28;20211;-70
2023/02/16 14:01:49;;;;;;;9.00;1.87;;;22.10;81.90;;;;;;5070603;28;20195;-70
2023/02/16 14:04:23;;;;;;;15.73;2.77;;;22.10;81.90;;;;;;5070824;28;20230;-70
2023/02/16 14:07:13;;;;;;;10.87;2.10;;;22.20;81.70;;;;;;5071347;28;20612;-69
2023/02/16 14:09:41;;;;;;;9.33;2.30;;;22.10;81.90;;;;;;5059982;28;20632;-70